createdAt,value
2023-04-08T00:00:03.848Z,100123.00
2023-04-08T00:02:37.296Z,100094.47
2023-04-08T00:05:05.196Z,100108.66
2023-04-08T00:07:32.177Z,100068.88
2023-04-08T00:09:59.298Z,100103.31
2023-04-08T00:12:26.275Z,100106.44
2023-04-08T00:14:53.178Z,100104.75
2023-04-08T00:17:20.103Z,100135.56
2023-04-08T00:19:47.024Z,100148.41
2023-04-08T00:22:13.895Z,100112.44
2023-04-08T00:24:40.932Z,100091.72
2023-04-08T00:27:07.769Z,100126.22
2023-04-08T00:29:34.779Z,100091.94
2023-04-08T00:32:01.734Z,100117.63
2023-04-08T00:34:28.847Z,100106.28
2023-04-08T00:36:55.753Z,100076.03
2023-04-08T00:39:22.714Z,100123.50
2023-04-08T00:41:49.603Z,100127.47
2023-04-08T00:44:16.616Z,100118.84
2023-04-08T00:46:44.188Z,100133.94
2023-04-08T00:49:11.164Z,100107.97
2023-04-08T00:51:38.017Z,100103.41
2023-04-08T00:54:05.358Z,100120.63
2023-04-08T00:56:33.206Z,100095.28
2023-04-08T00:59:03.265Z,100126.50
2023-04-08T01:01:43.736Z,100126.06
2023-04-08T01:04:17.792Z,100119.09
2023-04-08T01:06:50.166Z,100121.59
2023-04-08T01:09:23.798Z,100121.41
2023-04-08T01:11:52.512Z,100108.00
2023-04-08T01:14:26.701Z,100127.16
2023-04-08T01:16:57.041Z,100134.03
2023-04-08T01:19:34.679Z,100148.16
2023-04-08T01:22:13.768Z,100133.03
2023-04-08T01:24:44.327Z,100146.53
2023-04-08T01:27:14.193Z,100134.25
2023-04-08T01:29:43.725Z,100118.03
2023-04-08T01:32:12.158Z,100127.16
2023-04-08T01:34:41.834Z,100111.50
2023-04-08T01:37:09.231Z,100165.31
2023-04-08T01:39:38.796Z,100132.19
2023-04-08T01:42:06.011Z,100134.22
2023-04-08T01:44:33.368Z,100140.34
2023-04-08T01:47:01.080Z,100130.09
2023-04-08T01:49:30.595Z,100145.41
2023-04-08T01:51:59.092Z,100162.84
2023-04-08T01:54:26.040Z,100154.56
2023-04-08T01:56:55.502Z,100170.28
2023-04-08T01:59:24.724Z,100157.38
2023-04-08T02:01:52.808Z,100173.16
2023-04-08T02:04:20.235Z,100142.47
2023-04-08T02:06:47.341Z,100166.63
2023-04-08T02:09:14.270Z,100163.84
2023-04-08T02:11:41.144Z,100164.22
2023-04-08T02:14:08.158Z,100168.22
2023-04-08T02:16:49.270Z,100164.78
2023-04-08T02:19:25.945Z,100170.03
2023-04-08T02:21:57.268Z,100178.28
2023-04-08T02:24:27.668Z,100176.59
2023-04-08T02:26:59.227Z,100193.03
2023-04-08T02:29:29.957Z,100177.63
2023-04-08T02:31:57.899Z,100203.94
2023-04-08T02:34:26.118Z,100169.25
2023-04-08T02:36:54.261Z,100161.69
2023-04-08T02:39:21.271Z,100195.00
2023-04-08T02:41:49.999Z,100198.50
2023-04-08T02:44:16.818Z,100212.41
2023-04-08T02:46:46.018Z,100193.22
2023-04-08T02:49:12.879Z,100188.34
2023-04-08T02:51:39.757Z,100212.69
2023-04-08T02:54:06.676Z,100190.22
2023-04-08T02:56:33.881Z,100202.94
2023-04-08T02:59:00.672Z,100197.00
2023-04-08T03:01:27.573Z,100218.03
2023-04-08T03:03:54.585Z,100205.59
2023-04-08T03:06:21.431Z,100197.41
2023-04-08T03:08:48.509Z,100204.09
2023-04-08T03:11:15.803Z,100214.28
2023-04-08T03:13:42.675Z,100195.22
2023-04-08T03:16:09.561Z,100191.75
2023-04-08T03:18:36.439Z,100193.16
2023-04-08T03:21:03.398Z,100184.13
2023-04-08T03:23:30.223Z,100204.00
2023-04-08T03:25:57.087Z,100194.63
2023-04-08T03:28:23.987Z,100187.44
2023-04-08T03:30:51.069Z,100202.88
2023-04-08T03:33:17.995Z,100167.72
2023-04-08T03:35:44.965Z,100194.44
2023-04-08T03:38:11.806Z,100192.16
2023-04-08T03:40:38.665Z,100166.19
2023-04-08T03:43:05.616Z,100192.69
2023-04-08T03:45:32.484Z,100196.69
2023-04-08T03:47:59.406Z,100189.47
2023-04-08T03:50:26.806Z,100198.63
2023-04-08T03:52:54.195Z,100203.50
2023-04-08T03:55:21.272Z,100192.06
2023-04-08T03:57:48.138Z,100173.81
2023-04-08T04:00:15.309Z,100145.66
2023-04-08T04:02:45.024Z,100204.56
2023-04-08T04:05:12.092Z,100179.47
2023-04-08T04:07:39.329Z,100211.41
2023-04-08T04:10:06.696Z,100199.31
2023-04-08T04:12:33.611Z,100203.59
2023-04-08T04:15:01.123Z,100207.28
2023-04-08T04:17:28.098Z,100222.84
2023-04-08T04:19:55.064Z,100191.69
2023-04-08T04:22:21.932Z,100209.31
2023-04-08T04:24:49.388Z,100213.50
2023-04-08T04:27:16.596Z,100172.09
2023-04-08T04:29:43.990Z,100199.19
2023-04-08T04:32:12.266Z,100205.28
2023-04-08T04:34:39.354Z,100248.53
2023-04-08T04:37:06.233Z,100233.53
2023-04-08T04:39:33.193Z,100244.84
2023-04-08T04:42:00.066Z,100216.09
2023-04-08T04:44:26.894Z,100239.97
2023-04-08T04:46:53.990Z,100228.63
2023-04-08T04:49:20.899Z,100240.00
2023-04-08T04:51:47.694Z,100232.81
2023-04-08T04:54:14.844Z,100241.91
2023-04-08T04:56:41.702Z,100241.00
2023-04-08T04:59:08.673Z,100239.56
2023-04-08T05:01:36.185Z,100258.41
2023-04-08T05:04:03.166Z,100267.50
2023-04-08T05:06:30.353Z,100245.41
2023-04-08T05:08:57.634Z,100260.97
2023-04-08T05:11:24.760Z,100258.34
2023-04-08T05:13:51.671Z,100268.50
2023-04-08T05:16:18.659Z,100253.91
2023-04-08T05:18:45.807Z,100260.31
2023-04-08T05:21:12.732Z,100280.56
2023-04-08T05:23:42.765Z,100273.84
2023-04-08T05:26:09.833Z,100262.09
2023-04-08T05:28:36.772Z,100266.41
2023-04-08T05:31:06.209Z,100268.75
2023-04-08T05:33:33.046Z,100238.66
2023-04-08T05:35:59.949Z,100288.53
2023-04-08T05:38:26.887Z,100272.47
2023-04-08T05:40:53.750Z,100271.59
2023-04-08T05:43:20.626Z,100295.41
2023-04-08T05:45:47.574Z,100280.63
2023-04-08T05:48:16.486Z,100276.06
2023-04-08T05:50:43.477Z,100263.66
2023-04-08T05:53:10.594Z,100271.16
2023-04-08T05:55:37.506Z,100278.81
2023-04-08T05:58:04.403Z,100276.25
2023-04-08T06:00:31.299Z,100282.69
2023-04-08T06:02:58.362Z,100281.19
2023-04-08T06:05:25.328Z,100269.09
2023-04-08T06:07:52.262Z,100294.38
2023-04-08T06:10:19.247Z,100263.78
2023-04-08T06:12:46.141Z,100272.06
2023-04-08T06:15:13.003Z,100281.94
2023-04-08T06:17:40.071Z,100272.88
2023-04-08T06:20:07.271Z,100273.63
2023-04-08T06:22:34.345Z,100297.03
2023-04-08T06:25:01.200Z,100286.84
2023-04-08T06:27:28.399Z,100295.56
2023-04-08T06:29:55.533Z,100293.28
2023-04-08T06:32:22.628Z,100293.28
2023-04-08T06:34:49.708Z,100264.19
2023-04-08T06:37:16.611Z,100284.22
2023-04-08T06:39:46.425Z,100294.75
2023-04-08T06:42:13.343Z,100292.50
2023-04-08T06:45:03.058Z,100290.25
2023-04-08T06:47:29.989Z,100292.53
2023-04-08T06:49:56.793Z,100287.59
2023-04-08T06:52:23.843Z,100277.34
2023-04-08T06:54:51.109Z,100283.41
2023-04-08T06:57:36.447Z,100290.53
2023-04-08T07:00:22.093Z,100292.34
2023-04-08T07:02:49.245Z,100289.44
2023-04-08T07:05:16.212Z,100287.91
2023-04-08T07:07:43.206Z,100275.06
2023-04-08T07:10:11.199Z,100275.03
2023-04-08T07:12:38.523Z,100273.56
2023-04-08T07:15:05.998Z,100290.22
2023-04-08T07:17:32.996Z,100282.56
2023-04-08T07:20:18.561Z,100275.78
2023-04-08T07:22:45.773Z,100269.44
2023-04-08T07:25:12.750Z,100289.44
2023-04-08T07:27:39.773Z,100277.22
2023-04-08T07:30:07.471Z,100285.38
2023-04-08T07:32:35.057Z,100279.97
2023-04-08T07:35:20.983Z,100303.66
2023-04-08T07:37:49.122Z,100296.03
2023-04-08T07:40:16.151Z,100271.66
2023-04-08T07:43:01.831Z,100275.81
2023-04-08T07:45:28.777Z,100274.69
2023-04-08T07:47:55.768Z,100286.38
2023-04-08T07:50:22.794Z,100290.88
2023-04-08T07:53:08.321Z,100267.56
2023-04-08T07:55:35.719Z,100279.66
2023-04-08T07:58:02.822Z,100275.88
2023-04-08T08:00:30.036Z,100278.91
2023-04-08T08:02:57.267Z,100275.16
2023-04-08T08:05:24.468Z,100280.06
2023-04-08T08:07:51.396Z,100258.50
2023-04-08T08:10:18.473Z,100288.69
2023-04-08T08:12:45.459Z,100283.81
2023-04-08T08:15:12.652Z,100299.72
2023-04-08T08:17:39.658Z,100267.59
2023-04-08T08:20:07.614Z,100286.44
2023-04-08T08:22:36.645Z,100289.88
2023-04-08T08:25:09.003Z,100292.91
2023-04-08T08:27:36.178Z,100268.88
2023-04-08T08:30:06.882Z,100282.50
2023-04-08T08:32:33.957Z,100288.16
2023-04-08T08:35:00.950Z,100249.28
2023-04-08T08:37:27.892Z,100284.09
2023-04-08T08:39:54.821Z,100269.19
2023-04-08T08:42:23.044Z,100239.91
2023-04-08T08:44:50.182Z,100278.53
2023-04-08T08:47:17.811Z,100269.88
2023-04-08T08:49:45.500Z,100288.06
2023-04-08T08:52:16.536Z,100288.44
2023-04-08T08:54:44.755Z,100289.97
2023-04-08T08:57:21.271Z,100279.03
2023-04-08T08:59:48.538Z,100261.69
2023-04-08T09:02:35.830Z,100285.03
2023-04-08T09:05:04.964Z,100286.69
2023-04-08T09:07:36.438Z,100272.47
2023-04-08T09:10:04.158Z,100264.81
2023-04-08T09:12:31.053Z,100259.13
2023-04-08T09:15:04.894Z,100249.38
2023-04-08T09:17:37.058Z,100265.59
2023-04-08T09:20:05.033Z,100281.81
2023-04-08T09:22:32.056Z,100285.41
2023-04-08T09:24:59.060Z,100269.59
2023-04-08T09:27:35.537Z,100260.91
2023-04-08T09:30:15.816Z,100290.00
2023-04-08T09:32:49.828Z,100282.56
2023-04-08T09:35:21.201Z,100257.59
2023-04-08T09:37:49.287Z,100284.06
2023-04-08T09:40:16.607Z,100346.84
2023-04-08T09:42:48.804Z,100281.47
2023-04-08T09:45:17.506Z,100283.03
2023-04-08T09:48:05.071Z,100284.13
2023-04-08T09:50:36.444Z,100283.03
2023-04-08T09:53:34.543Z,100277.28
2023-04-08T09:56:06.474Z,100262.88
2023-04-08T09:58:51.615Z,100272.28
2023-04-08T10:01:42.493Z,100268.81
2023-04-08T10:04:14.835Z,100285.56
2023-04-08T10:06:42.411Z,100282.50
2023-04-08T10:09:10.508Z,100283.34
2023-04-08T10:11:37.800Z,100273.88
2023-04-08T10:14:04.924Z,100290.56
2023-04-08T10:16:32.120Z,100289.06
2023-04-08T10:18:59.072Z,100283.34
2023-04-08T10:21:39.851Z,100270.13
2023-04-08T10:24:11.059Z,100270.69
2023-04-08T10:26:47.197Z,100272.03
2023-04-08T10:29:19.965Z,100290.81
2023-04-08T10:31:50.932Z,100266.34
2023-04-08T10:34:18.119Z,100290.50
2023-04-08T10:36:45.972Z,100289.47
2023-04-08T10:39:14.240Z,100299.25
2023-04-08T10:41:48.092Z,100298.09
2023-04-08T10:44:20.112Z,100262.19
2023-04-08T10:46:48.177Z,100260.78
2023-04-08T10:49:17.355Z,100304.25
2023-04-08T10:51:45.193Z,100292.13
2023-04-08T10:54:14.335Z,100297.38
2023-04-08T10:56:52.420Z,100309.09
2023-04-08T10:59:45.865Z,100291.69
2023-04-08T11:02:15.776Z,100285.63
2023-04-08T11:04:42.953Z,100307.56
2023-04-08T11:07:09.912Z,100301.56
2023-04-08T11:09:37.629Z,100290.47
2023-04-08T11:12:04.877Z,100273.47
2023-04-08T11:14:31.801Z,100283.25
2023-04-08T11:16:58.656Z,100270.34
2023-04-08T11:19:25.621Z,100293.03
2023-04-08T11:21:53.629Z,100272.63
2023-04-08T11:24:21.587Z,100280.31
2023-04-08T11:26:48.835Z,100260.25
2023-04-08T11:29:15.847Z,100266.63
2023-04-08T11:31:44.297Z,100278.09
2023-04-08T11:34:12.416Z,100294.72
2023-04-08T11:36:42.348Z,100273.97
2023-04-08T11:39:12.610Z,100282.69
2023-04-08T11:41:40.287Z,100263.75
2023-04-08T11:44:08.407Z,100294.72
2023-04-08T11:46:35.767Z,100274.16
2023-04-08T11:49:05.004Z,100255.34
2023-04-08T11:51:32.836Z,100287.47
2023-04-08T11:53:59.806Z,100280.63
2023-04-08T11:56:27.121Z,100272.47
2023-04-08T11:58:54.058Z,100270.88
2023-04-08T12:01:20.975Z,100282.00
2023-04-08T12:04:02.004Z,100270.19
2023-04-08T12:06:32.770Z,100251.03
2023-04-08T12:08:59.657Z,100250.94
2023-04-08T12:11:27.977Z,100249.75
2023-04-08T12:13:54.838Z,100259.81
2023-04-08T12:16:21.701Z,100270.16
2023-04-08T12:18:48.661Z,100254.38
2023-04-08T12:21:15.550Z,100252.72
2023-04-08T12:23:42.747Z,100251.38
2023-04-08T12:26:09.966Z,100277.34
2023-04-08T12:28:36.875Z,100251.91
2023-04-08T12:31:04.102Z,100268.00
2023-04-08T12:33:31.156Z,100256.44
2023-04-08T12:35:58.582Z,100266.31
2023-04-08T12:38:26.319Z,100253.22
2023-04-08T12:40:54.187Z,100263.69
2023-04-08T12:43:21.069Z,100262.09
2023-04-08T12:45:48.286Z,100239.44
2023-04-08T12:48:15.216Z,100250.84
2023-04-08T12:50:42.069Z,100275.88
2023-04-08T12:53:08.888Z,100224.50
2023-04-08T12:55:35.902Z,100259.19
2023-04-08T12:58:02.751Z,100258.16
2023-04-08T13:00:29.627Z,100252.47
2023-04-08T13:02:56.660Z,100265.31
2023-04-08T13:05:33.150Z,100251.63
2023-04-08T13:08:10.318Z,100254.69
2023-04-08T13:10:37.830Z,100261.47
2023-04-08T13:13:05.101Z,100265.66
2023-04-08T13:15:32.242Z,100257.75
2023-04-08T13:17:59.812Z,100246.31
2023-04-08T13:20:29.751Z,100257.31
2023-04-08T13:22:57.053Z,100252.34
2023-04-08T13:25:25.336Z,100256.81
2023-04-08T13:27:52.297Z,100209.28
2023-04-08T13:30:19.823Z,100252.03
2023-04-08T13:32:51.426Z,100253.91
2023-04-08T13:35:18.603Z,100243.41
2023-04-08T13:37:45.630Z,100271.31
2023-04-08T13:40:12.797Z,100237.31
2023-04-08T13:42:39.713Z,100247.16
2023-04-08T13:45:07.265Z,100247.91
2023-04-08T13:47:35.893Z,100243.00
2023-04-08T13:50:05.034Z,100234.72
2023-04-08T13:52:31.976Z,100236.59
2023-04-08T13:54:59.255Z,100236.22
2023-04-08T13:57:26.172Z,100257.78
2023-04-08T13:59:53.132Z,100227.94
2023-04-08T14:02:20.073Z,100239.97
2023-04-08T14:04:47.319Z,100229.03
2023-04-08T14:07:14.621Z,100247.91
2023-04-08T14:09:41.562Z,100226.78
2023-04-08T14:12:08.513Z,100232.44
2023-04-08T14:14:35.627Z,100235.84
2023-04-08T14:17:02.875Z,100229.81
2023-04-08T14:19:29.882Z,100239.97
2023-04-08T14:21:57.045Z,100274.75
2023-04-08T14:24:24.127Z,100223.75
2023-04-08T14:26:50.987Z,100231.31
2023-04-08T14:29:18.017Z,100242.25
2023-04-08T14:31:44.841Z,100242.59
2023-04-08T14:34:11.776Z,100234.88
2023-04-08T14:36:38.693Z,100243.19
2023-04-08T14:39:05.682Z,100267.34
2023-04-08T14:41:32.565Z,100224.72
2023-04-08T14:43:59.881Z,100239.72
2023-04-08T14:46:28.719Z,100228.38
2023-04-08T14:48:56.386Z,100252.97
2023-04-08T14:51:23.251Z,100265.03
2023-04-08T14:53:50.331Z,100252.53
2023-04-08T14:56:17.403Z,100238.94
2023-04-08T14:58:44.298Z,100238.22
2023-04-08T15:01:11.182Z,100242.28
2023-04-08T15:03:38.487Z,100235.88
2023-04-08T15:06:05.623Z,100237.88
2023-04-08T15:08:32.610Z,100248.00
2023-04-08T15:10:59.458Z,100236.22
2023-04-08T15:13:26.541Z,100246.00
2023-04-08T15:15:53.446Z,100253.56
2023-04-08T15:18:20.717Z,100248.25
2023-04-08T15:20:47.650Z,100237.19
2023-04-08T15:23:14.701Z,100239.16
2023-04-08T15:25:41.529Z,100236.94
2023-04-08T15:28:08.482Z,100256.19
2023-04-08T15:30:35.585Z,100262.44
2023-04-08T15:33:04.009Z,100258.53
2023-04-08T15:35:31.392Z,100253.28
2023-04-08T15:37:58.567Z,100239.66
2023-04-08T15:40:25.377Z,100251.53
2023-04-08T15:42:52.517Z,100265.13
2023-04-08T15:45:19.905Z,100259.06
2023-04-08T15:47:46.849Z,100255.03
2023-04-08T15:50:13.986Z,100268.84
2023-04-08T15:52:41.086Z,100266.97
2023-04-08T15:55:08.842Z,100288.44
2023-04-08T15:57:36.338Z,100282.41
2023-04-08T16:00:10.928Z,100283.06
2023-04-08T16:02:41.192Z,100280.91
2023-04-08T16:05:08.549Z,100298.38
2023-04-08T16:07:35.758Z,100301.41
2023-04-08T16:10:02.767Z,100285.56
2023-04-08T16:12:29.861Z,100292.19
2023-04-08T16:14:57.035Z,100320.69
2023-04-08T16:17:24.547Z,100297.22
2023-04-08T16:19:51.940Z,100304.28
2023-04-08T16:22:19.923Z,100297.13
2023-04-08T16:24:46.811Z,100272.75
2023-04-08T16:27:13.792Z,100309.28
2023-04-08T16:29:41.180Z,100293.00
2023-04-08T16:32:08.415Z,100319.75
2023-04-08T16:34:35.767Z,100304.28
2023-04-08T16:37:02.971Z,100322.31
2023-04-08T16:39:30.271Z,100316.38
2023-04-08T16:41:57.138Z,100319.41
2023-04-08T16:44:24.106Z,100321.06
2023-04-08T16:46:51.335Z,100324.19
2023-04-08T16:49:18.473Z,100324.34
2023-04-08T16:51:45.809Z,100348.06
2023-04-08T16:54:13.180Z,100325.56
2023-04-08T16:56:40.236Z,100329.84
2023-04-08T16:59:07.055Z,100340.34
2023-04-08T17:01:36.657Z,100343.22
2023-04-08T17:04:03.789Z,100339.88
2023-04-08T17:06:30.800Z,100345.31
2023-04-08T17:09:00.117Z,100339.66
2023-04-08T17:11:27.027Z,100351.03
2023-04-08T17:13:54.307Z,100362.91
2023-04-08T17:16:21.260Z,100356.63
2023-04-08T17:18:48.478Z,100354.81
2023-04-08T17:21:15.618Z,100337.50
2023-04-08T17:23:42.592Z,100354.59
2023-04-08T17:26:12.198Z,100349.81
2023-04-08T17:28:39.025Z,100352.50
2023-04-08T17:31:05.924Z,100345.34
2023-04-08T17:33:32.827Z,100338.16
2023-04-08T17:36:00.777Z,100353.69
2023-04-08T17:38:28.489Z,100335.81
2023-04-08T17:40:59.218Z,100349.88
2023-04-08T17:43:29.533Z,100323.88
2023-04-08T17:46:00.130Z,100331.25
2023-04-08T17:48:28.830Z,100364.13
2023-04-08T17:51:03.703Z,100327.72
2023-04-08T17:53:31.743Z,100351.41
2023-04-08T17:56:01.366Z,100354.25
2023-04-08T17:58:28.531Z,100348.13
2023-04-08T18:00:55.620Z,100336.44
2023-04-08T18:03:23.060Z,100344.25
2023-04-08T18:06:02.897Z,100352.00
2023-04-08T18:08:30.484Z,100339.97
2023-04-08T18:10:58.813Z,100350.41
2023-04-08T18:13:26.092Z,100360.72
2023-04-08T18:15:53.547Z,100339.97
2023-04-08T18:18:21.627Z,100346.78
2023-04-08T18:20:52.193Z,100353.63
2023-04-08T18:23:22.521Z,100354.09
2023-04-08T18:25:49.775Z,100349.59
2023-04-08T18:28:16.846Z,100328.97
2023-04-08T18:30:44.142Z,100363.31
2023-04-08T18:33:11.230Z,100349.13
2023-04-08T18:35:38.348Z,100351.88
2023-04-08T18:38:05.309Z,100340.59
2023-04-08T18:40:33.559Z,100354.00
2023-04-08T18:43:00.538Z,100351.53
2023-04-08T18:45:28.165Z,100357.63
2023-04-08T18:47:55.085Z,100340.69
2023-04-08T18:50:22.263Z,100348.28
2023-04-08T18:52:49.397Z,100314.19
2023-04-08T18:55:16.416Z,100336.94
2023-04-08T18:57:43.552Z,100338.66
2023-04-08T19:00:10.597Z,100334.84
2023-04-08T19:02:40.912Z,100331.41
2023-04-08T19:05:08.302Z,100344.44
2023-04-08T19:07:35.331Z,100324.88
2023-04-08T19:10:02.474Z,100363.09
2023-04-08T19:12:29.438Z,100328.69
2023-04-08T19:14:56.336Z,100335.03
2023-04-08T19:17:23.267Z,100355.44
2023-04-08T19:19:50.157Z,100335.44
2023-04-08T19:22:19.942Z,100331.13
2023-04-08T19:24:46.870Z,100366.19
2023-04-08T19:27:13.899Z,100311.03
2023-04-08T19:29:40.801Z,100336.16
2023-04-08T19:32:07.640Z,100317.03
2023-04-08T19:34:38.493Z,100326.13
2023-04-08T19:37:05.896Z,100339.75
2023-04-08T19:39:32.738Z,100338.19
2023-04-08T19:41:59.651Z,100314.59
2023-04-08T19:44:26.510Z,100331.47
2023-04-08T19:46:53.482Z,100330.72
2023-04-08T19:49:20.778Z,100321.63
2023-04-08T19:51:47.717Z,100335.22
2023-04-08T19:54:14.647Z,100340.44
2023-04-08T19:56:41.665Z,100320.53
2023-04-08T19:59:08.561Z,100336.25
2023-04-08T20:01:35.787Z,100338.97
2023-04-08T20:04:02.936Z,100328.47
2023-04-08T20:06:29.969Z,100339.72
2023-04-08T20:08:56.942Z,100343.47
2023-04-08T20:11:23.834Z,100329.91
2023-04-08T20:13:50.706Z,100343.34
2023-04-08T20:16:17.913Z,100335.00
2023-04-08T20:18:44.713Z,100328.97
2023-04-08T20:21:11.675Z,100333.94
2023-04-08T20:23:38.510Z,100317.81
2023-04-08T20:26:05.459Z,100313.59
2023-04-08T20:28:32.367Z,100327.78
2023-04-08T20:30:59.350Z,100350.19
2023-04-08T20:33:26.171Z,100328.22
2023-04-08T20:35:53.326Z,100333.03
2023-04-08T20:38:20.251Z,100336.41
2023-04-08T20:40:47.466Z,100339.66
2023-04-08T20:43:14.390Z,100329.28
2023-04-08T20:45:41.278Z,100331.94
2023-04-08T20:48:08.349Z,100344.94
2023-04-08T20:50:35.412Z,100316.50
2023-04-08T20:53:02.308Z,100316.06
2023-04-08T20:55:29.276Z,100335.31
2023-04-08T20:57:56.304Z,100323.19
2023-04-08T21:00:23.293Z,100350.28
2023-04-08T21:02:50.360Z,100317.22
2023-04-08T21:05:17.498Z,100337.41
2023-04-08T21:07:44.488Z,100335.53
2023-04-08T21:10:11.874Z,100327.09
2023-04-08T21:12:38.726Z,100327.16
2023-04-08T21:15:06.218Z,100332.81
2023-04-08T21:17:33.113Z,100349.13
2023-04-08T21:20:00.282Z,100326.69
2023-04-08T21:22:27.155Z,100322.22
2023-04-08T21:24:54.857Z,100323.28
2023-04-08T21:27:21.759Z,100332.38
2023-04-08T21:29:54.644Z,100317.81
2023-04-08T21:32:21.562Z,100325.28
2023-04-08T21:34:48.436Z,100325.78
2023-04-08T21:37:15.385Z,100339.34
2023-04-08T21:39:42.268Z,100340.41
2023-04-08T21:42:09.186Z,100327.28
2023-04-08T21:44:36.060Z,100350.75
2023-04-08T21:47:03.084Z,100348.78
2023-04-08T21:49:29.934Z,100327.34
2023-04-08T21:51:56.937Z,100335.69
2023-04-08T21:54:23.869Z,100352.84
2023-04-08T21:56:50.836Z,100340.78
2023-04-08T21:59:17.733Z,100350.31
2023-04-08T22:01:44.925Z,100332.47
2023-04-08T22:04:12.000Z,100342.25
2023-04-08T22:06:39.018Z,100321.94
2023-04-08T22:09:05.871Z,100341.19
2023-04-08T22:11:32.950Z,100341.28
2023-04-08T22:13:59.824Z,100345.31
2023-04-08T22:16:26.899Z,100331.72
2023-04-08T22:18:54.069Z,100344.72
2023-04-08T22:21:21.315Z,100333.72
2023-04-08T22:23:48.221Z,100320.53
2023-04-08T22:26:15.801Z,100334.88
2023-04-08T22:28:42.963Z,100325.78
2023-04-08T22:31:11.316Z,100341.50
2023-04-08T22:33:39.135Z,100351.41
2023-04-08T22:36:06.484Z,100343.53
2023-04-08T22:38:33.510Z,100338.28
2023-04-08T22:41:00.443Z,100334.44
2023-04-08T22:43:27.351Z,100342.78
2023-04-08T22:45:54.377Z,100340.59
2023-04-08T22:48:21.301Z,100338.31
2023-04-08T22:50:48.217Z,100347.03
2023-04-08T22:53:15.080Z,100323.59
2023-04-08T22:55:41.993Z,100338.69
2023-04-08T22:58:08.820Z,100338.91
2023-04-08T23:00:35.771Z,100345.19
2023-04-08T23:03:02.653Z,100333.22
2023-04-08T23:05:29.931Z,100323.50
2023-04-08T23:07:56.819Z,100337.91
2023-04-08T23:10:23.725Z,100342.13
2023-04-08T23:12:50.558Z,100338.69
2023-04-08T23:15:17.616Z,100307.03
2023-04-08T23:17:44.434Z,100340.69
2023-04-08T23:20:11.967Z,100341.44
2023-04-08T23:22:38.870Z,100343.00
2023-04-08T23:25:06.506Z,100373.84
2023-04-08T23:27:33.317Z,100343.78
2023-04-08T23:30:00.213Z,100347.78
2023-04-08T23:32:27.155Z,100340.22
2023-04-08T23:34:54.160Z,100370.78
2023-04-08T23:37:21.108Z,100347.50
2023-04-08T23:39:48.124Z,100352.00
2023-04-08T23:42:14.994Z,100317.13
2023-04-08T23:44:41.932Z,100366.38
2023-04-08T23:47:09.082Z,100367.22
2023-04-08T23:49:35.952Z,100350.31
2023-04-08T23:52:02.822Z,100364.66
2023-04-08T23:54:29.743Z,100366.09
2023-04-08T23:56:56.862Z,100340.53
2023-04-08T23:59:23.812Z,100363.78
